Ship Status Report: callsign AMOUK29

sailwx.info

Track history (hours):
 
Tides and Currents Weather Stations Pressure Air Temp Water Temp Dewpoint Dewpoint Depression Visibility Wind Speed Wind Dir Waves Ship Positions

Callsign AMOUK29 (name unknown)

Last reported at 2015-May-25 17:00 UTC. Time now 2015-May-25 21:32 UTC.
Position N 54°36' W 004°54'.

Barometer 1021.2 mb
Air temperature 9.9 ° C
Dewpoint 5.9 ° C

Date/timePositionNaut miles runAvg speedWind from/ knotsBaromVisibWave heightAir tempDewpointWater temp
2015-May-25 17:00N 54°36' W 004°54'1212.0 1021.2 9.9 5.9
2015-May-25 16:00N 54°42' W 005°12'1413.9 1020.8 10.0 5.9
2015-May-25 15:00N 54°42' W 005°36'7 6.9 1021.1 9.4 6.8
2015-May-25 14:00N 54°42' W 005°48'7 1.7 1020.7 10.8 7.7
2015-May-25 10:00N 54°36' W 005°54'0 0.0 1020.3 12.6 7.8
2015-May-25 07:00N 54°36' W 005°54'0 0.0 1019.4 10.1 7.2
2015-May-25 06:00N 54°36' W 005°54'0 0.0 1019.3 9.5 7.3
2015-May-25 05:00N 54°36' W 005°54'0 0.0 1019.3 9.5 6.6
2015-May-25 04:00N 54°36' W 005°54'0 0.0 1019.4 9.4 6.6
2015-May-25 03:00N 54°36' W 005°54'0 0.0 1019.6 9.9 5.8
2015-May-25 00:00N 54°36' W 005°54'0 0.0 1020.5 10.0 4.6
2015-May-24 23:00N 54°36' W 005°54'0 0.0 1020.9 10.2 3.7
2015-May-24 22:00N 54°36' W 005°54'0 0.0 1021.1 10.5 3.7
2015-May-24 21:00N 54°36' W 005°54'0 0.0 1020.9 10.9 3.1
2015-May-24 16:00N 54°36' W 005°54'0 0.0 1020.4 12.3 3.7
2015-May-24 15:00N 54°36' W 005°54'0 0.0 1020.5 12.7 3.6
2015-May-24 13:00N 54°36' W 005°54'0 0.0 1020.6 12.0 3.7
2015-May-24 12:00N 54°36' W 005°54'0 0.0 1020.6 11.9 3.1
2015-May-24 11:00N 54°36' W 005°54'0 0.0 1020.5 11.7 3.9
2015-May-24 09:00N 54°36' W 005°54'0 0.0 1019.9 11.6 4.7
2015-May-24 04:00N 54°36' W 005°54'0 0.0 1018.1 10.6 8.7
2015-May-23 15:00N 54°36' W 005°54'0 0.0 1022.6 17.8 9.1
2015-May-23 14:00N 54°36' W 005°54'0 0.0 1023.4 17.6 8.7
2015-May-23 10:00N 54°36' W 005°54'0 0.0 1026.5 11.9 5.9
2015-May-23 08:00N 54°36' W 005°54'   1027.2 10.2 6.3
2015-May-17 11:00N 54°36' W 005°54'0 0.0 1020.1 12.4 3.4
2015-May-17 10:00N 54°36' W 005°54'0 0.0 1020.6 11.4 3.7
2015-May-17 09:00N 54°36' W 005°54'0 0.0 1020.8 11.0 4.0
2015-May-17 03:00N 54°36' W 005°54'0 0.0 1022.7 7.9 4.9
2015-May-17 01:00N 54°36' W 005°54'0 0.0 1023.3 7.8 4.2
2015-May-16 19:00N 54°36' W 005°54'0 0.0 1024.3 11.4 1.0
2015-May-16 18:00N 54°36' W 005°54'0 0.0 1024.6 12.2 0.6
2015-May-16 17:00N 54°36' W 005°54'0 0.0 1024.6 12.2-1.8
2015-May-16 16:00N 54°36' W 005°54'0 0.0 1024.6 12.1 1.9
2015-May-16 15:00N 54°36' W 005°54'0 0.0 1024.2 13.0 0.6
2015-May-16 14:00N 54°36' W 005°54'0 0.0 1024.3 11.1 2.0
2015-May-16 13:00N 54°36' W 005°54'0 0.0 1023.8 12.1 2.9
2015-May-16 08:00N 54°36' W 005°54'0 0.0 1022.3 8.8 2.9
2015-May-16 07:00N 54°36' W 005°54'0 0.0 1021.6 8.5 3.0
2015-May-16 06:00N 54°36' W 005°54'0 0.0 1021.0 8.1 2.6
2015-May-16 05:00N 54°36' W 005°54'0 0.0 1020.5 7.8 2.3
2015-May-16 04:00N 54°36' W 005°54'0 0.0 1019.9 7.8 3.1
2015-May-16 00:00N 54°36' W 005°54'0 0.0 1018.0 9.4 4.7
2015-May-15 23:00N 54°36' W 005°54'0 0.0 1017.4 10.4 5.5
2015-May-15 21:00N 54°36' W 005°54'0 0.0 1016.0 12.6 9.3
2015-May-15 18:00N 54°36' W 005°54'0 0.0 1014.8 13.510.9
2015-May-15 17:00N 54°36' W 005°54'   1014.9 12.810.7
Track history (hours):
 
Tides and Currents Weather Stations Pressure Air Temp Water Temp Dewpoint Dewpoint Depression Visibility Wind Speed Wind Dir Waves Ship Positions

Callsign AMOUK29 (name unknown)

Last reported at 2015-May-25 17:00 UTC. Time now 2015-May-25 21:32 UTC.
Position N 54°36' W 004°54'.

Barometer 1021.2 mb
Air temperature 9.9 ° C
Dewpoint 5.9 ° C

Date/timePositionNaut miles runAvg speedWind from/ knotsBaromVisibWave heightAir tempDewpointWater temp
2015-May-25 17:00N 54°36' W 004°54'1212.0 1021.2 9.9 5.9
2015-May-25 16:00N 54°42' W 005°12'1413.9 1020.8 10.0 5.9
2015-May-25 15:00N 54°42' W 005°36'7 6.9 1021.1 9.4 6.8
2015-May-25 14:00N 54°42' W 005°48'7 1.7 1020.7 10.8 7.7
2015-May-25 10:00N 54°36' W 005°54'0 0.0 1020.3 12.6 7.8
2015-May-25 07:00N 54°36' W 005°54'0 0.0 1019.4 10.1 7.2
2015-May-25 06:00N 54°36' W 005°54'0 0.0 1019.3 9.5 7.3
2015-May-25 05:00N 54°36' W 005°54'0 0.0 1019.3 9.5 6.6
2015-May-25 04:00N 54°36' W 005°54'0 0.0 1019.4 9.4 6.6
2015-May-25 03:00N 54°36' W 005°54'0 0.0 1019.6 9.9 5.8
2015-May-25 00:00N 54°36' W 005°54'0 0.0 1020.5 10.0 4.6
2015-May-24 23:00N 54°36' W 005°54'0 0.0 1020.9 10.2 3.7
2015-May-24 22:00N 54°36' W 005°54'0 0.0 1021.1 10.5 3.7
2015-May-24 21:00N 54°36' W 005°54'0 0.0 1020.9 10.9 3.1
2015-May-24 16:00N 54°36' W 005°54'0 0.0 1020.4 12.3 3.7
2015-May-24 15:00N 54°36' W 005°54'0 0.0 1020.5 12.7 3.6
2015-May-24 13:00N 54°36' W 005°54'0 0.0 1020.6 12.0 3.7
2015-May-24 12:00N 54°36' W 005°54'0 0.0 1020.6 11.9 3.1
2015-May-24 11:00N 54°36' W 005°54'0 0.0 1020.5 11.7 3.9
2015-May-24 09:00N 54°36' W 005°54'0 0.0 1019.9 11.6 4.7
2015-May-24 04:00N 54°36' W 005°54'0 0.0 1018.1 10.6 8.7
2015-May-23 15:00N 54°36' W 005°54'0 0.0 1022.6 17.8 9.1
2015-May-23 14:00N 54°36' W 005°54'0 0.0 1023.4 17.6 8.7
2015-May-23 10:00N 54°36' W 005°54'0 0.0 1026.5 11.9 5.9
2015-May-23 08:00N 54°36' W 005°54'   1027.2 10.2 6.3
2015-May-17 11:00N 54°36' W 005°54'0 0.0 1020.1 12.4 3.4
2015-May-17 10:00N 54°36' W 005°54'0 0.0 1020.6 11.4 3.7
2015-May-17 09:00N 54°36' W 005°54'0 0.0 1020.8 11.0 4.0
2015-May-17 03:00N 54°36' W 005°54'0 0.0 1022.7 7.9 4.9
2015-May-17 01:00N 54°36' W 005°54'0 0.0 1023.3 7.8 4.2
2015-May-16 19:00N 54°36' W 005°54'0 0.0 1024.3 11.4 1.0
2015-May-16 18:00N 54°36' W 005°54'0 0.0 1024.6 12.2 0.6
2015-May-16 17:00N 54°36' W 005°54'0 0.0 1024.6 12.2-1.8
2015-May-16 16:00N 54°36' W 005°54'0 0.0 1024.6 12.1 1.9
2015-May-16 15:00N 54°36' W 005°54'0 0.0 1024.2 13.0 0.6
2015-May-16 14:00N 54°36' W 005°54'0 0.0 1024.3 11.1 2.0
2015-May-16 13:00N 54°36' W 005°54'0 0.0 1023.8 12.1 2.9
2015-May-16 08:00N 54°36' W 005°54'0 0.0 1022.3 8.8 2.9
2015-May-16 07:00N 54°36' W 005°54'0 0.0 1021.6 8.5 3.0
2015-May-16 06:00N 54°36' W 005°54'0 0.0 1021.0 8.1 2.6
2015-May-16 05:00N 54°36' W 005°54'0 0.0 1020.5 7.8 2.3
2015-May-16 04:00N 54°36' W 005°54'0 0.0 1019.9 7.8 3.1
2015-May-16 00:00N 54°36' W 005°54'0 0.0 1018.0 9.4 4.7
2015-May-15 23:00N 54°36' W 005°54'0 0.0 1017.4 10.4 5.5
2015-May-15 21:00N 54°36' W 005°54'0 0.0 1016.0 12.6 9.3
2015-May-15 18:00N 54°36' W 005°54'0 0.0 1014.8 13.510.9
2015-May-15 17:00N 54°36' W 005°54'   1014.9 12.810.7

Dump ship's entire track history